Impacts METAR Board
IDs:

KCLT - Charlotte/Douglas In, NC, US

Updated at: 0100 UTC 25 May 2018
Potential Impact None Slight Moderate High
Time 24/13Z 24/14Z 24/15Z 24/16Z 24/17Z 24/18Z 24/19Z 24/20Z 24/21Z 24/22Z 24/23Z 25/00Z 25/01Z
Temp73 75 75 75 76 77 77 80 83 82 81 80 76
Dewpt69 69 70 70 70 70 70 69 69 69 68 68 70
Altim30.16 30.16 30.17 30.18 30.17 30.16 30.14 30.12 30.10 30.10 30.11 30.12 30.14
VIS9 9 10 10 9 9 9 10 10 10 10 10 9
CIG12 14 16 11 13 14 24 48 100 100 33 55 24
CoverOVCOVCOVCOVCOVCOVCBKNBKNBKNBKNBKNBKNBKN
FltCatMVFRMVFRMVFRMVFRMVFRMVFRMVFRVFRVFRVFRVFRVFRMVFR
WX-------------------------RA
WDir40607070708040100306070100150
WSpd7 7 9 9 6 6 9 9 10 8 8 5 20
WGst-- 17 19 -- -- -- -- -- -- -- -- -- 25
Raw hourly METARs
KCLT 241252Z 04007KT 9SM BKN012 BKN026 OVC150 23/21 A3016 RMK AO2 SLP204 T02280206
KCLT 241352Z 06007G17KT 030V090 9SM BKN014 BKN150 OVC250 24/21 A3016 RMK AO2 SLP204 T02390206
KCLT 241452Z 07009G19KT 10SM BKN016 OVC150 24/21 A3017 RMK AO2 SLP208 T02390211 51010
KCLT 241552Z 07009KT 10SM BKN011 OVC017 24/21 A3018 RMK AO2 SLP211 T02390211
KCLT 241652Z 07006KT 9SM BKN013 OVC016 24/21 A3017 RMK AO2 SLP210 T02440211
KCLT 241752Z 08006KT 9SM BKN014 OVC017 25/21 A3016 RMK AO2 SLP203 T02500211 10250 20228 58005
KCLT 241852Z 04009KT 9SM SCT018 BKN024TCU BKN250 25/21 A3014 RMK AO2 SLP197 TCU NE-E T02500211
KCLT 241952Z 10009KT 10SM SCT024TCU BKN048 BKN250 27/21 A3012 RMK AO2 SLP190 TCU NW-NE T02670206
KCLT 242052Z 03010KT 10SM SCT028TCU SCT045 BKN100 BKN250 28/21 A3010 RMK AO2 SLP184 TCU OHD-E AND W AND DSNT NW AND SE T02830206 58019
KCLT 242152Z 06008KT 10SM SCT028TCU SCT060 BKN100 BKN250 28/21 A3010 RMK AO2 SLP186 TCU E-SE AND DSNT N-NE AND SW-W T02780206
KCLT 242252Z 07008KT 10SM BKN033TCU BKN070 BKN120 BKN250 27/20 A3011 RMK AO2 LTG DSNT SE AND S SLP189 CB DSNT S TCU OHD-SW-NW T02720200
KCLT 242352Z 10005KT 10SM SCT032TCU BKN055 BKN120 BKN250 27/20 A3012 RMK AO2 SLP191 TCU NE AND DSNT E AND S-W T02670200 10283 20250 53008
KCLT 250052Z 15020G25KT 9SM -RA BKN024TCU BKN038 24/21 A3014 RMK AO2 LTG DSNT S RAB50 SLP199 TCU ALQDS P0000 T02440211



Page loaded:  01:16 UTC  |   06:16 PM Pacific  |   07:16 PM Mountain  |   08:16 PM Central  |   09:16 PM Eastern

 

ADVISORIES

FORECASTS

FORECASTS

OBSERVATIONS

USER TOOLS

ABOUT US